Patensie, South Africa

7:10 AM SAST on January 24, 2017 (GMT +0200)
Loerie | | Change Station

Elev 258 ft 33.88 °S, 25.04 °E | Updated 24 seconds ago

Partly Cloudy
Partly Cloudy
79.0 °F
Feels Like 81 °F
N
0.0
Wind Variable Wind from SSE
Gusts 0.0 mph

Today
High -- | Low -- °F
--% Chance of Precip.
Yesterday
High -- | Low -- °F
Precip. -- in
Pressure 29.71 in
Visibility 5.6 miles
Clouds
Heat Index 81 °F
Dew Point 68 °F
Humidity 70%
Rainfall 0.00 in
Snow Depth Not available.
5:34 AM 7:30 PM
Waning Crescent, 14% visible
METAR FAPE 240500Z 02006KT 340V040 9000 NSC 22/21 Q1006 NOSIG
Pressure 29.71 in
Visibility 5.6 miles
Clouds
Heat Index 81 °F
Dew Point 68 °F
Humidity 70%
Rainfall 0.00 in
Snow Depth Not available.
5:34 AM 7:30 PM
Waning Crescent, 14% visible
METAR FAPE 240500Z 02006KT 340V040 9000 NSC 22/21 Q1006 NOSIG

Get Your Daily Forecast Email!

Thanks for signing up!

Be on the lookout for a verification email in your inbox.

You'll start receiving the daily forecast at 8 AM.

×

10-Day Weather Forecast

No radar image for this location.
×

Almanac

Astronomy

Jan. 24, 2017 Rise Set
Actual Time
Civil Twilight
Nautical Twilight
Astronomical Twilight
Moon
Length of Visible Light
Length of Day
Tomorrow will be .
, % of the Moon is Illuminated

Today's Extremes

Country Highs Country Lows

Community

WunderPhotos

Upload Photos

1,962,540 photos uploaded!

WunderBlog® & News

Nearby

Air Quality

  Air Quality AQ Index Pollutant
Not available.

Snow Depth

Station Depth Elevation

Earthquake Activity

City Distance Mag. Time & Date
Minimum magnitude displayed is 2.5.

Coastal Water Temperatures

Place Temperature

Stations

Nearby Weather Stations

Station Location Temp. Windchill Dew Point Humidity Wind Precip. Elev Updated Type